Time;durP1;ratioP1;P1;durP2;ratioP2;P2;SDS_P1;SDS_P2;PMS_P1;PMS_P2;Temp;Humidity;BMP_temperature;BMP_pressure;BME280_temperature;BME280_humidity;BME280_pressure;Samples;Min_cycle;Max_cycle;Signal;HPM_P1;HPM_P2
2023/12/03 00:00:47;;;;;;;13.33;8.30;;;1.70;99.90;;;;;;5072861;28;20194;-70
2023/12/03 00:03:13;;;;;;;14.70;9.43;;;1.60;99.90;;;;;;5074228;28;20557;-70
2023/12/03 00:05:39;;;;;;;21.73;10.43;;;1.70;99.90;;;;;;5074324;28;20645;-70
2023/12/03 00:08:05;;;;;;;16.20;9.37;;;1.60;99.90;;;;;;5074032;28;20442;-70
2023/12/03 00:10:31;;;;;;;13.70;7.73;;;1.60;99.90;;;;;;5072790;28;20506;-70
2023/12/03 00:12:57;;;;;;;16.20;8.70;;;1.60;99.90;;;;;;5074013;28;20463;-70
2023/12/03 00:15:22;;;;;;;16.83;8.33;;;1.60;99.90;;;;;;5074104;28;20186;-70
2023/12/03 00:17:49;;;;;;;13.97;6.73;;;1.60;99.90;;;;;;5073706;28;20198;-70
2023/12/03 00:20:15;;;;;;;15.70;7.97;;;1.60;99.90;;;;;;5073966;28;20190;-70
2023/12/03 00:22:41;;;;;;;15.50;10.00;;;1.60;99.90;;;;;;5073373;28;20851;-70
2023/12/03 00:25:07;;;;;;;15.27;8.40;;;1.60;99.90;;;;;;5073991;28;20170;-70
2023/12/03 00:27:32;;;;;;;18.10;8.13;;;1.60;99.90;;;;;;5073515;28;20600;-70
2023/12/03 00:29:58;;;;;;;14.93;8.60;;;1.70;99.90;;;;;;5073502;28;20424;-70
2023/12/03 00:32:23;;;;;;;14.00;7.90;;;1.70;99.90;;;;;;5073645;28;20687;-70
2023/12/03 00:34:49;;;;;;;18.33;7.50;;;1.70;99.90;;;;;;5073527;28;20166;-70
2023/12/03 00:37:14;;;;;;;14.50;8.97;;;1.70;99.90;;;;;;5073425;28;20197;-70
2023/12/03 00:39:40;;;;;;;19.00;8.93;;;1.70;99.90;;;;;;5072836;28;20625;-70
2023/12/03 00:42:05;;;;;;;17.50;9.13;;;1.70;99.90;;;;;;5073221;28;20154;-70
2023/12/03 00:44:32;;;;;;;10.87;7.53;;;1.70;99.90;;;;;;5073341;28;20166;-70
2023/12/03 00:46:58;;;;;;;21.27;9.60;;;1.50;99.90;;;;;;5073252;28;20641;-70
2023/12/03 00:49:23;;;;;;;17.30;8.80;;;1.50;99.90;;;;;;5073428;28;20515;-70
2023/12/03 00:51:49;;;;;;;20.23;9.57;;;1.60;99.90;;;;;;5073044;28;20170;-70
2023/12/03 00:54:14;;;;;;;20.57;9.73;;;1.40;99.90;;;;;;5073177;28;20190;-70
2023/12/03 00:56:40;;;;;;;18.23;8.17;;;1.30;99.90;;;;;;5072920;28;20158;-70
2023/12/03 00:59:05;;;;;;;15.03;8.57;;;1.40;99.90;;;;;;5073250;28;20540;-70
2023/12/03 01:01:31;;;;;;;15.60;9.43;;;1.30;99.90;;;;;;5072829;28;20190;-70
2023/12/03 01:03:57;;;;;;;15.53;8.73;;;1.20;99.90;;;;;;5073072;28;20170;-71
2023/12/03 01:06:22;;;;;;;19.90;8.77;;;1.40;99.90;;;;;;5071599;28;20224;-70
2023/12/03 01:08:48;;;;;;;17.17;9.23;;;1.30;99.90;;;;;;5072922;28;20178;-70
2023/12/03 01:11:13;;;;;;;16.77;9.00;;;1.40;99.90;;;;;;5072924;28;20194;-71
2023/12/03 01:13:39;;;;;;;11.63;8.17;;;1.30;99.90;;;;;;5077193;28;20170;-70
2023/12/03 01:16:05;;;;;;;18.83;9.83;;;1.40;99.90;;;;;;5075836;28;20566;-70
2023/12/03 01:18:30;;;;;;;18.00;9.33;;;1.50;99.90;;;;;;5072464;28;20710;-70
2023/12/03 01:20:56;;;;;;;14.27;7.87;;;1.60;99.90;;;;;;5072510;28;20428;-70
2023/12/03 01:23:21;;;;;;;22.77;9.37;;;1.60;99.90;;;;;;5072676;28;20170;-70
2023/12/03 01:25:47;;;;;;;15.53;8.70;;;1.70;99.90;;;;;;5072600;28;20644;-70
2023/12/03 01:28:13;;;;;;;14.60;9.10;;;1.60;99.90;;;;;;5072398;28;20232;-70
2023/12/03 01:30:39;;;;;;;17.40;8.53;;;1.70;99.90;;;;;;5070439;28;20235;-69
2023/12/03 01:33:04;;;;;;;15.10;8.57;;;1.80;99.90;;;;;;5072392;28;20453;-70
2023/12/03 01:35:30;;;;;;;16.67;7.97;;;1.80;99.90;;;;;;5072494;28;20457;-70
2023/12/03 01:37:55;;;;;;;18.00;8.50;;;1.90;99.90;;;;;;5070885;28;20693;-70
2023/12/03 01:40:21;;;;;;;18.57;8.57;;;2.00;99.90;;;;;;5072389;28;20656;-70
2023/12/03 01:42:46;;;;;;;14.60;8.50;;;2.00;99.90;;;;;;5072346;28;20224;-69
2023/12/03 01:45:12;;;;;;;13.27;8.23;;;2.00;99.90;;;;;;5071055;28;20216;-70
2023/12/03 01:47:38;;;;;;;17.70;9.50;;;2.00;99.90;;;;;;5070879;28;20178;-70
2023/12/03 01:50:08;;;;;;;17.00;8.53;;;1.90;99.90;;;;;;5071491;28;20657;-70
2023/12/03 01:52:35;;;;;;;22.57;9.30;;;1.90;99.90;;;;;;5072006;28;20405;-70
2023/12/03 01:55:02;;;;;;;17.60;8.70;;;1.90;99.90;;;;;;5072349;28;20942;-70
2023/12/03 01:57:27;;;;;;;16.10;7.60;;;2.00;99.90;;;;;;5071916;28;20448;-70
2023/12/03 01:59:53;;;;;;;18.93;9.23;;;2.00;99.90;;;;;;5072149;28;20456;-70
2023/12/03 02:02:18;;;;;;;12.77;8.53;;;2.00;99.90;;;;;;5072036;28;20511;-70
2023/12/03 02:04:44;;;;;;;18.77;8.70;;;2.00;99.90;;;;;;5072062;28;20599;-70
2023/12/03 02:07:09;;;;;;;14.53;8.13;;;1.90;99.90;;;;;;5071801;28;20219;-70
2023/12/03 02:09:36;;;;;;;11.20;6.90;;;2.00;99.90;;;;;;5071957;28;20188;-70
2023/12/03 02:12:02;;;;;;;14.27;8.73;;;2.00;99.90;;;;;;5071910;28;20175;-70
2023/12/03 02:14:28;;;;;;;15.80;9.10;;;2.10;99.90;;;;;;5072017;28;20562;-70
2023/12/03 02:16:53;;;;;;;16.03;9.13;;;2.00;99.90;;;;;;5071748;28;20583;-70
2023/12/03 02:19:18;;;;;;;19.03;9.33;;;1.90;99.90;;;;;;5072018;28;20166;-70
2023/12/03 02:21:44;;;;;;;23.07;8.90;;;1.70;99.90;;;;;;5071684;28;20212;-69
2023/12/03 02:24:10;;;;;;;13.03;8.20;;;1.70;99.90;;;;;;5071934;28;20194;-70
2023/12/03 02:26:35;;;;;;;12.80;7.33;;;1.60;99.90;;;;;;5071934;28;20200;-70
2023/12/03 02:29:01;;;;;;;13.63;8.33;;;1.50;99.90;;;;;;5070352;28;20674;-70
2023/12/03 02:31:30;;;;;;;17.27;8.00;;;1.50;99.90;;;;;;5071702;28;20239;-70
2023/12/03 02:34:13;;;;;;;13.43;8.80;;;1.40;99.90;;;;;;5071794;28;20196;-70
2023/12/03 02:36:39;;;;;;;16.03;7.07;;;1.40;99.90;;;;;;5071694;28;20404;-70
2023/12/03 02:39:05;;;;;;;10.93;6.33;;;1.50;99.90;;;;;;5071557;28;20408;-70
2023/12/03 02:41:31;;;;;;;14.57;7.80;;;1.50;99.90;;;;;;5070307;28;20429;-70
2023/12/03 02:43:56;;;;;;;14.33;6.97;;;1.40;99.90;;;;;;5071705;28;20413;-70
2023/12/03 02:46:22;;;;;;;12.27;7.03;;;1.40;99.90;;;;;;5071598;28;20174;-70
2023/12/03 02:48:48;;;;;;;12.30;7.43;;;1.40;99.90;;;;;;5071443;28;20409;-70
2023/12/03 02:51:14;;;;;;;14.80;7.53;;;1.40;99.90;;;;;;5071463;28;20976;-69
2023/12/03 02:53:39;;;;;;;21.27;8.00;;;1.40;99.90;;;;;;5071561;28;20665;-69
2023/12/03 02:56:06;;;;;;;12.33;7.00;;;1.30;99.90;;;;;;5071561;28;20653;-70
2023/12/03 02:58:32;;;;;;;13.90;7.83;;;1.30;99.90;;;;;;5071320;28;20201;-70
2023/12/03 03:00:57;;;;;;;11.27;7.33;;;1.30;99.90;;;;;;5071313;28;20773;-70
2023/12/03 03:03:23;;;;;;;12.10;7.53;;;1.30;99.90;;;;;;5074890;28;20207;-70
2023/12/03 03:05:48;;;;;;;10.87;5.90;;;1.30;99.90;;;;;;5075456;28;20220;-70
2023/12/03 03:08:14;;;;;;;11.97;6.93;;;1.20;99.90;;;;;;5075174;28;20170;-70
2023/12/03 03:10:39;;;;;;;13.07;6.33;;;1.00;99.90;;;;;;5075265;28;20190;-70
2023/12/03 03:13:05;;;;;;;13.10;7.50;;;1.10;99.90;;;;;;5074761;28;20170;-70
2023/12/03 03:15:30;;;;;;;11.70;6.90;;;1.10;99.90;;;;;;5075128;28;20197;-70
2023/12/03 03:17:56;;;;;;;13.97;7.00;;;1.20;99.90;;;;;;5074889;28;20190;-70
2023/12/03 03:20:22;;;;;;;9.87;5.90;;;1.10;99.90;;;;;;5075003;28;20189;-70
2023/12/03 03:22:51;;;;;;;9.80;5.83;;;1.00;99.90;;;;;;5074994;28;20529;-70
2023/12/03 03:25:17;;;;;;;10.50;6.37;;;1.00;99.90;;;;;;5075118;28;20411;-70
2023/12/03 03:27:43;;;;;;;10.27;6.20;;;0.90;99.90;;;;;;5074732;28;20400;-70
2023/12/03 03:30:09;;;;;;;10.97;5.43;;;0.80;99.90;;;;;;5074374;28;20789;-70
2023/12/03 03:32:34;;;;;;;10.70;5.00;;;0.80;99.90;;;;;;5074760;28;20211;-70
2023/12/03 03:35:00;;;;;;;8.93;5.90;;;0.80;99.90;;;;;;5074756;28;20907;-70
2023/12/03 03:37:26;;;;;;;10.00;5.20;;;0.70;99.90;;;;;;5074446;28;20285;-70
2023/12/03 03:39:51;;;;;;;16.30;9.20;;;0.80;99.90;;;;;;5074664;28;20549;-70
2023/12/03 03:42:17;;;;;;;11.97;5.90;;;0.70;99.90;;;;;;5074606;28;20162;-70
2023/12/03 03:44:42;;;;;;;10.70;6.27;;;0.60;99.90;;;;;;5074653;28;20249;-70
2023/12/03 03:47:11;;;;;;;12.63;5.43;;;0.70;99.90;;;;;;5074450;28;20642;-70
2023/12/03 03:49:36;;;;;;;11.40;7.10;;;0.70;99.90;;;;;;5073199;28;20583;-70
2023/12/03 03:52:02;;;;;;;13.20;5.33;;;0.80;99.90;;;;;;5073003;28;20414;-70
2023/12/03 03:54:28;;;;;;;11.63;8.27;;;0.90;99.90;;;;;;5074406;28;20194;-70
2023/12/03 03:56:53;;;;;;;11.70;6.43;;;1.00;99.90;;;;;;5073107;28;20225;-70
2023/12/03 03:59:19;;;;;;;12.73;5.90;;;1.00;99.90;;;;;;5074428;28;20192;-70
2023/12/03 04:01:45;;;;;;;11.23;6.30;;;1.00;99.90;;;;;;5074215;28;20186;-69
2023/12/03 04:04:11;;;;;;;10.47;6.13;;;1.10;99.90;;;;;;5074418;28;20223;-70
2023/12/03 04:06:42;;;;;;;12.20;6.67;;;1.10;99.90;;;;;;5073041;28;20401;-70
2023/12/03 04:09:08;;;;;;;14.50;8.23;;;1.10;99.90;;;;;;5074242;28;20412;-70
2023/12/03 04:11:41;;;;;;;20.70;9.17;;;1.10;99.90;;;;;;5074227;28;21112;-70
2023/12/03 04:14:07;;;;;;;14.50;7.03;;;1.20;99.90;;;;;;5073029;28;20769;-70
2023/12/03 04:16:36;;;;;;;11.17;6.10;;;1.20;99.90;;;;;;5074109;28;20407;-70
2023/12/03 04:19:02;;;;;;;14.57;6.87;;;1.20;99.90;;;;;;5073962;28;20798;-70
2023/12/03 04:21:28;;;;;;;10.80;6.40;;;1.20;99.90;;;;;;5073885;28;20427;-70
2023/12/03 04:23:54;;;;;;;12.00;7.03;;;1.10;99.90;;;;;;5073976;28;20400;-70
2023/12/03 04:26:20;;;;;;;16.20;8.00;;;1.00;99.90;;;;;;5072526;28;20515;-70
2023/12/03 04:28:45;;;;;;;11.40;6.07;;;1.00;99.90;;;;;;5073572;28;20178;-69
2023/12/03 04:31:22;;;;;;;10.10;7.10;;;1.00;99.90;;;;;;5073674;28;20186;-70
2023/12/03 04:34:00;;;;;;;11.00;6.90;;;0.90;99.90;;;;;;5073753;28;20400;-70
2023/12/03 04:36:27;;;;;;;14.63;6.80;;;0.80;99.90;;;;;;5073847;28;20833;-70
2023/12/03 04:38:55;;;;;;;10.93;6.63;;;0.60;99.90;;;;;;5073397;28;20452;-70
2023/12/03 04:41:22;;;;;;;9.83;5.43;;;0.50;99.90;;;;;;5073425;28;20417;-70
2023/12/03 04:43:47;;;;;;;9.87;5.67;;;0.50;99.90;;;;;;5073618;28;20424;-70
2023/12/03 04:46:13;;;;;;;8.50;6.30;;;0.50;99.90;;;;;;5073412;28;20412;-69
2023/12/03 04:48:40;;;;;;;13.30;6.80;;;0.60;99.90;;;;;;5073305;28;20186;-70
2023/12/03 04:51:07;;;;;;;8.00;5.20;;;0.70;99.90;;;;;;5073217;28;20507;-70
2023/12/03 04:53:32;;;;;;;13.07;6.17;;;0.70;99.90;;;;;;5073184;28;20863;-70
2023/12/03 04:55:58;;;;;;;11.70;6.70;;;0.70;99.90;;;;;;5073316;28;20432;-70
2023/12/03 04:58:24;;;;;;;10.77;7.37;;;0.70;99.90;;;;;;5072919;28;20677;-70
2023/12/03 05:00:49;;;;;;;9.67;5.20;;;0.60;99.90;;;;;;5072980;28;20714;-70
2023/12/03 05:03:15;;;;;;;9.77;5.87;;;0.60;99.90;;;;;;5073046;28;20162;-69
2023/12/03 05:05:40;;;;;;;10.40;5.40;;;0.50;99.90;;;;;;5073256;28;20511;-69
2023/12/03 05:08:06;;;;;;;8.70;6.20;;;0.50;99.90;;;;;;5071686;28;20181;-70
2023/12/03 05:10:32;;;;;;;12.83;6.50;;;0.40;99.90;;;;;;5073178;28;20697;-70
2023/12/03 05:12:57;;;;;;;9.63;5.97;;;0.20;99.90;;;;;;5072789;28;20196;-70
2023/12/03 05:15:23;;;;;;;9.73;5.30;;;0.20;99.90;;;;;;5072836;28;20185;-70
2023/12/03 05:17:48;;;;;;;8.40;5.20;;;0.10;99.90;;;;;;5071147;28;20827;-69
2023/12/03 05:20:14;;;;;;;9.43;5.63;;;-0.10;99.90;;;;;;5072680;28;20186;-70
2023/12/03 05:22:40;;;;;;;10.50;6.53;;;0.00;99.90;;;;;;5072679;28;20163;-70
2023/12/03 05:25:06;;;;;;;14.23;6.77;;;-0.10;99.90;;;;;;5072247;28;20169;-70
2023/12/03 05:27:32;;;;;;;8.37;5.30;;;-0.10;99.90;;;;;;5072448;28;20530;-70
2023/12/03 05:29:58;;;;;;;14.40;7.33;;;-0.20;99.90;;;;;;5072495;28;20412;-70
2023/12/03 05:32:23;;;;;;;15.27;6.40;;;-0.20;99.90;;;;;;5072478;28;20409;-70
2023/12/03 05:34:49;;;;;;;8.23;5.50;;;-0.30;99.90;;;;;;5072566;28;20665;-70
2023/12/03 05:37:14;;;;;;;11.47;6.50;;;-0.30;99.90;;;;;;5070964;28;20190;-69
2023/12/03 05:39:40;;;;;;;8.90;5.30;;;-0.30;99.90;;;;;;5072377;28;20287;-70
2023/12/03 05:42:06;;;;;;;18.97;6.70;;;-0.40;99.90;;;;;;5071073;28;20629;-70
2023/12/03 05:44:32;;;;;;;14.00;6.13;;;-0.40;99.90;;;;;;5072394;28;20427;-70
2023/12/03 05:46:58;;;;;;;11.93;5.97;;;-0.40;99.90;;;;;;5072207;28;20174;-70
2023/12/03 05:49:23;;;;;;;12.17;6.60;;;-0.40;99.90;;;;;;5072118;28;20407;-70
2023/12/03 05:51:49;;;;;;;7.93;5.93;;;-0.50;99.90;;;;;;5072215;28;20215;-70
2023/12/03 05:54:15;;;;;;;9.90;5.80;;;-0.50;99.90;;;;;;5072392;28;20235;-69
2023/12/03 05:56:41;;;;;;;11.13;6.40;;;-0.60;99.90;;;;;;5072525;28;20780;-70
2023/12/03 05:59:06;;;;;;;11.00;5.87;;;-0.60;99.90;;;;;;5072081;28;20411;-70
2023/12/03 06:01:32;;;;;;;11.60;6.30;;;-0.60;99.90;;;;;;5071991;28;20190;-70
2023/12/03 06:03:58;;;;;;;11.67;6.63;;;-0.60;99.90;;;;;;5072158;28;20158;-70
2023/12/03 06:06:23;;;;;;;9.33;7.53;;;-0.60;99.90;;;;;;5072151;28;20487;-69
2023/12/03 06:08:50;;;;;;;13.40;6.27;;;-0.60;99.90;;;;;;5070255;28;20170;-70
2023/12/03 06:11:16;;;;;;;11.10;7.30;;;-0.60;99.90;;;;;;5071958;28;20239;-70
2023/12/03 06:13:41;;;;;;;10.73;5.20;;;-0.50;99.90;;;;;;5071992;28;20484;-70
2023/12/03 06:16:07;;;;;;;15.70;7.57;;;-0.50;99.90;;;;;;5071937;28;20174;-70
2023/12/03 06:18:33;;;;;;;9.87;5.50;;;-0.50;99.90;;;;;;5071688;28;20269;-70
2023/12/03 06:20:58;;;;;;;8.30;5.43;;;-0.50;99.90;;;;;;5071862;28;20824;-70
2023/12/03 06:23:24;;;;;;;10.77;5.90;;;-0.50;99.90;;;;;;5071905;28;20212;-69
2023/12/03 06:25:49;;;;;;;12.17;6.73;;;-0.50;99.90;;;;;;5071907;28;20209;-70
2023/12/03 06:28:15;;;;;;;10.60;6.33;;;-0.40;99.90;;;;;;5071699;28;20566;-70
2023/12/03 06:30:40;;;;;;;15.07;5.80;;;-0.40;99.90;;;;;;5071518;28;20196;-70
2023/12/03 06:33:06;;;;;;;11.93;6.20;;;-0.30;99.90;;;;;;5071434;28;20629;-70
2023/12/03 06:35:31;;;;;;;10.80;5.33;;;-0.20;99.90;;;;;;5071716;28;20215;-70
2023/12/03 06:37:57;;;;;;;13.60;5.87;;;-0.20;99.90;;;;;;5074361;28;20190;-70
2023/12/03 06:40:22;;;;;;;10.97;5.90;;;-0.20;99.90;;;;;;5075815;28;20553;-70
2023/12/03 06:42:48;;;;;;;14.20;7.40;;;-0.10;99.90;;;;;;5075789;28;20163;-69
2023/12/03 06:45:14;;;;;;;9.00;6.03;;;-0.20;99.90;;;;;;5075741;28;20211;-69
2023/12/03 06:47:39;;;;;;;9.03;6.67;;;-0.30;99.90;;;;;;5075567;28;20166;-70
2023/12/03 06:50:06;;;;;;;11.90;6.40;;;-0.40;99.90;;;;;;5075606;28;20268;-69
2023/12/03 06:52:31;;;;;;;11.10;5.43;;;-0.40;99.90;;;;;;5075487;28;20173;-70
2023/12/03 06:54:57;;;;;;;10.80;6.07;;;-0.50;99.90;;;;;;5075506;28;20424;-70
2023/12/03 06:57:22;;;;;;;11.93;6.47;;;-0.50;99.90;;;;;;5075415;28;20649;-70
2023/12/03 06:59:48;;;;;;;13.67;5.67;;;-0.60;99.90;;;;;;5075535;28;20193;-70
2023/12/03 07:02:13;;;;;;;13.20;7.10;;;-0.60;99.90;;;;;;5075419;28;20241;-70
2023/12/03 07:04:39;;;;;;;9.93;5.33;;;-0.60;99.90;;;;;;5075424;28;20170;-70
2023/12/03 07:07:05;;;;;;;8.50;5.57;;;-0.60;99.90;;;;;;5073871;28;20170;-70
2023/12/03 07:09:31;;;;;;;11.60;6.63;;;-0.50;99.90;;;;;;5075096;28;20172;-70
2023/12/03 07:11:57;;;;;;;11.80;6.30;;;-0.40;99.90;;;;;;5075279;28;20400;-70
2023/12/03 07:14:22;;;;;;;13.30;5.90;;;-0.30;99.90;;;;;;5075279;28;20396;-70
2023/12/03 07:16:48;;;;;;;8.07;6.17;;;-0.20;99.90;;;;;;5074756;28;20775;-70
2023/12/03 07:19:13;;;;;;;10.93;6.67;;;-0.10;99.90;;;;;;5075556;28;20181;-70
2023/12/03 07:21:39;;;;;;;15.57;7.53;;;-0.10;99.90;;;;;;5075200;28;20187;-70
2023/12/03 07:24:05;;;;;;;11.03;6.83;;;-0.10;99.90;;;;;;5075074;28;20188;-70
2023/12/03 07:26:30;;;;;;;13.20;6.77;;;-0.10;99.90;;;;;;5075074;28;20227;-70
2023/12/03 07:28:56;;;;;;;11.20;5.50;;;0.00;99.90;;;;;;5073571;28;20427;-70
2023/12/03 07:31:22;;;;;;;11.90;6.57;;;0.00;99.90;;;;;;5074856;28;20194;-70
2023/12/03 07:33:47;;;;;;;10.30;6.00;;;-0.10;99.90;;;;;;5075031;28;20408;-70
2023/12/03 07:36:13;;;;;;;13.60;6.33;;;0.00;99.90;;;;;;5074944;28;20254;-70
2023/12/03 07:38:38;;;;;;;14.00;6.97;;;0.00;99.90;;;;;;5073232;28;20198;-70
2023/12/03 07:41:11;;;;;;;16.17;7.20;;;0.00;99.90;;;;;;5074546;28;20209;-70
2023/12/03 07:43:37;;;;;;;11.30;6.43;;;0.00;99.90;;;;;;5074604;28;20212;-69
2023/12/03 07:46:03;;;;;;;12.37;6.77;;;0.10;99.90;;;;;;5074765;28;20400;-70
2023/12/03 07:48:28;;;;;;;17.03;7.20;;;0.00;99.90;;;;;;5074453;28;20648;-70
2023/12/03 07:50:54;;;;;;;10.60;6.20;;;0.00;99.90;;;;;;5074485;28;20428;-70
2023/12/03 07:53:19;;;;;;;10.20;5.90;;;0.00;99.90;;;;;;5074429;28;20246;-70
2023/12/03 07:55:45;;;;;;;12.87;7.13;;;0.10;99.90;;;;;;5074606;28;20178;-70
2023/12/03 07:58:11;;;;;;;11.87;7.00;;;0.10;99.90;;;;;;5074213;28;20198;-70
2023/12/03 08:00:38;;;;;;;8.00;5.80;;;0.10;99.90;;;;;;5074255;28;20581;-70
2023/12/03 08:03:04;;;;;;;12.10;7.27;;;0.20;99.90;;;;;;5074151;28;20553;-70
2023/12/03 08:05:29;;;;;;;17.90;8.33;;;0.30;99.90;;;;;;5074366;28;20467;-70
2023/12/03 08:07:55;;;;;;;12.37;7.50;;;0.70;99.90;;;;;;5073982;28;20566;-70
2023/12/03 08:10:20;;;;;;;16.43;8.37;;;1.70;99.90;;;;;;5074108;28;20201;-70
2023/12/03 08:12:46;;;;;;;12.40;7.40;;;2.70;99.90;;;;;;5074214;28;20201;-70
2023/12/03 08:15:11;;;;;;;12.20;7.20;;;3.40;99.90;;;;;;5074267;28;20170;-70
2023/12/03 08:17:37;;;;;;;16.27;8.07;;;3.30;99.90;;;;;;5073831;28;20213;-70
2023/12/03 08:20:05;;;;;;;12.77;7.40;;;3.70;99.90;;;;;;5073776;28;20185;-70
2023/12/03 08:22:31;;;;;;;12.40;6.00;;;4.40;99.90;;;;;;5074075;28;20400;-71
2023/12/03 08:24:56;;;;;;;11.63;7.20;;;5.30;99.90;;;;;;5073817;28;20405;-70
2023/12/03 08:27:22;;;;;;;15.40;7.50;;;6.30;99.90;;;;;;5072448;28;20499;-70
2023/12/03 08:29:48;;;;;;;12.77;7.60;;;6.70;99.90;;;;;;5073937;28;20206;-70
2023/12/03 08:32:13;;;;;;;17.13;7.73;;;7.00;99.90;;;;;;5073669;28;20170;-71
2023/12/03 08:34:39;;;;;;;11.80;6.73;;;7.20;99.90;;;;;;5073704;28;20172;-70
2023/12/03 08:37:04;;;;;;;10.07;7.43;;;7.00;99.90;;;;;;5073531;28;20201;-71
2023/12/03 08:39:31;;;;;;;13.43;7.07;;;6.10;99.90;;;;;;5073614;28;20665;-70
2023/12/03 08:41:57;;;;;;;12.67;7.60;;;5.70;99.90;;;;;;5072155;28;20170;-70
2023/12/03 08:44:23;;;;;;;13.20;6.97;;;5.80;99.90;;;;;;5073654;28;20412;-71
2023/12/03 08:46:48;;;;;;;14.07;7.77;;;5.70;99.90;;;;;;5071970;28;20170;-70
2023/12/03 08:49:14;;;;;;;16.00;7.80;;;5.40;99.90;;;;;;5073003;28;20162;-70
2023/12/03 08:51:39;;;;;;;14.80;8.40;;;5.00;99.90;;;;;;5073206;28;20540;-70
2023/12/03 08:54:05;;;;;;;13.57;6.73;;;4.60;99.90;;;;;;5073222;28;20208;-71
2023/12/03 08:56:31;;;;;;;12.70;6.73;;;4.20;99.90;;;;;;5073306;28;20173;-70
2023/12/03 08:58:56;;;;;;;14.83;7.10;;;4.60;99.90;;;;;;5072794;28;20210;-70
2023/12/03 09:01:22;;;;;;;17.00;7.73;;;5.90;99.90;;;;;;5072868;28;20696;-70
2023/12/03 09:03:48;;;;;;;15.20;7.10;;;7.40;99.90;;;;;;5073067;28;20208;-70
2023/12/03 09:06:14;;;;;;;11.20;7.00;;;8.50;99.90;;;;;;5073111;28;20524;-71
2023/12/03 09:08:40;;;;;;;11.87;6.80;;;9.10;90.80;;;;;;5072826;28;20492;-71
2023/12/03 09:11:06;;;;;;;13.00;7.03;;;9.00;79.60;;;;;;5072831;28;20221;-70
2023/12/03 09:13:32;;;;;;;13.03;7.40;;;9.00;74.50;;;;;;5072868;28;20836;-71
2023/12/03 09:15:58;;;;;;;11.87;7.40;;;9.40;73.40;;;;;;5072885;28;20500;-71
2023/12/03 09:18:23;;;;;;;13.33;8.13;;;9.60;67.50;;;;;;5071215;28;20560;-72
2023/12/03 09:20:49;;;;;;;14.40;8.17;;;9.80;64.90;;;;;;5072743;28;20190;-71
2023/12/03 09:23:14;;;;;;;17.37;9.70;;;10.00;60.70;;;;;;5072739;28;20158;-71
2023/12/03 09:25:40;;;;;;;12.13;7.10;;;10.00;58.70;;;;;;5072606;28;20228;-70
2023/12/03 09:28:06;;;;;;;11.93;6.60;;;10.30;57.90;;;;;;5072522;28;20181;-71
2023/12/03 09:30:31;;;;;;;12.23;7.20;;;11.00;56.80;;;;;;5072650;28;20677;-71
2023/12/03 09:32:58;;;;;;;7.90;6.30;;;11.80;54.50;;;;;;5072561;28;20170;-71
2023/12/03 09:35:23;;;;;;;9.90;6.30;;;12.40;51.70;;;;;;5072476;28;20223;-71
2023/12/03 09:37:49;;;;;;;9.70;6.17;;;12.50;49.00;;;;;;5072286;28;20455;-71
2023/12/03 09:40:14;;;;;;;10.80;6.27;;;13.00;49.50;;;;;;5072383;28;20186;-71
2023/12/03 09:42:43;;;;;;;8.63;6.40;;;12.90;46.90;;;;;;5072422;28;20292;-71
2023/12/03 09:45:09;;;;;;;8.80;6.27;;;13.20;46.20;;;;;;5071110;28;20208;-70
2023/12/03 09:47:36;;;;;;;10.07;6.53;;;13.30;45.40;;;;;;5072687;28;20879;-71
2023/12/03 09:50:06;;;;;;;10.53;6.27;;;12.90;44.50;;;;;;5071303;28;20887;-70
2023/12/03 09:52:35;;;;;;;10.87;7.27;;;12.00;43.70;;;;;;5072217;28;20455;-70
2023/12/03 09:55:02;;;;;;;8.60;5.87;;;11.30;45.20;;;;;;5072167;28;20431;-71
2023/12/03 09:57:29;;;;;;;11.30;6.63;;;10.60;46.60;;;;;;5071915;28;20451;-71
2023/12/03 10:00:00;;;;;;;11.50;7.20;;;10.00;47.90;;;;;;5072077;28;20429;-70
2023/12/03 10:02:28;;;;;;;11.13;7.37;;;9.40;49.80;;;;;;5072235;28;20404;-71
2023/12/03 10:04:55;;;;;;;10.27;6.50;;;9.00;51.40;;;;;;5070821;28;20397;-71
2023/12/03 10:07:22;;;;;;;12.43;7.40;;;8.60;52.50;;;;;;5071937;28;20405;-71
2023/12/03 10:09:49;;;;;;;11.83;6.60;;;8.10;54.10;;;;;;5070636;28;20436;-71
2023/12/03 10:12:17;;;;;;;10.57;7.13;;;7.90;56.10;;;;;;5071164;28;20428;-71
2023/12/03 10:14:45;;;;;;;9.67;6.67;;;7.70;57.90;;;;;;5072081;28;20891;-71
2023/12/03 10:17:18;;;;;;;12.30;6.97;;;7.30;59.80;;;;;;5070364;28;20530;-71
2023/12/03 10:19:43;;;;;;;13.20;7.63;;;7.20;64.20;;;;;;5072216;28;20412;-70
2023/12/03 10:22:09;;;;;;;11.30;6.27;;;7.00;69.60;;;;;;5071953;28;20404;-70
2023/12/03 10:24:55;;;;;;;15.77;7.80;;;6.80;74.70;;;;;;5071885;28;20166;-71
2023/12/03 10:27:20;;;;;;;11.30;6.47;;;6.70;83.00;;;;;;5071377;28;20186;-70
2023/12/03 10:29:46;;;;;;;14.27;6.57;;;6.60;86.90;;;;;;5072553;28;20444;-71
2023/12/03 10:32:12;;;;;;;12.53;7.20;;;6.80;91.00;;;;;;5071717;28;20537;-70
2023/12/03 10:34:43;;;;;;;13.60;6.90;;;6.90;89.50;;;;;;5071568;28;20404;-70
2023/12/03 10:37:09;;;;;;;11.57;7.13;;;7.10;88.40;;;;;;5071673;28;20265;-68
2023/12/03 10:39:37;;;;;;;11.20;7.47;;;7.20;89.00;;;;;;5070325;28;20416;-71
2023/12/03 10:42:03;;;;;;;12.50;6.93;;;7.50;84.80;;;;;;5071557;28;20895;-70
2023/12/03 10:44:28;;;;;;;12.63;6.03;;;7.80;78.70;;;;;;5071658;28;20407;-70
2023/12/03 10:46:57;;;;;;;11.27;6.63;;;7.90;75.10;;;;;;5071497;28;20170;-70
2023/12/03 10:49:25;;;;;;;13.00;7.67;;;8.40;75.00;;;;;;5071712;28;20659;-71
2023/12/03 10:51:54;;;;;;;12.37;7.00;;;9.60;72.30;;;;;;5071492;28;20480;-71
2023/12/03 10:54:19;;;;;;;13.57;7.67;;;10.80;61.60;;;;;;5071413;28;20546;-71
2023/12/03 10:56:49;;;;;;;14.30;7.20;;;11.80;55.30;;;;;;5071424;28;20966;-71
2023/12/03 10:59:20;;;;;;;11.20;7.70;;;12.00;49.80;;;;;;5071622;28;20648;-71
2023/12/03 11:01:49;;;;;;;11.10;5.97;;;11.30;48.70;;;;;;5071533;28;20423;-71
2023/12/03 11:04:41;;;;;;;13.83;6.80;;;11.20;49.30;;;;;;5071608;28;20401;-71
2023/12/03 11:07:07;;;;;;;12.23;6.93;;;11.30;49.60;;;;;;5071395;28;20443;-71
2023/12/03 11:09:39;;;;;;;14.20;6.53;;;11.30;48.90;;;;;;5071485;28;20424;-71
2023/12/03 11:12:07;;;;;;;10.87;7.00;;;11.70;48.80;;;;;;5071440;28;20657;-71
2023/12/03 11:14:34;;;;;;;13.30;7.33;;;12.30;48.80;;;;;;5071433;28;20450;-71
2023/12/03 11:17:30;;;;;;;8.60;5.80;;;12.90;48.30;;;;;;5069812;28;20431;-71
2023/12/03 11:20:05;;;;;;;11.37;6.80;;;14.10;46.60;;;;;;5070361;28;20486;-71
2023/12/03 11:22:45;;;;;;;7.13;5.63;;;14.60;43.90;;;;;;5071768;28;20466;-71
2023/12/03 11:25:18;;;;;;;8.80;5.70;;;15.10;42.00;;;;;;5074968;28;20407;-71
2023/12/03 11:27:46;;;;;;;10.30;6.63;;;15.60;40.60;;;;;;5074759;28;20407;-72
2023/12/03 11:30:13;;;;;;;9.00;6.10;;;15.80;39.40;;;;;;5074869;28;20768;-72
2023/12/03 11:32:39;;;;;;;10.43;7.83;;;15.60;38.30;;;;;;5073634;28;20438;-72
2023/12/03 11:35:16;;;;;;;7.93;6.67;;;15.30;38.30;;;;;;5074891;28;20420;-72
2023/12/03 11:37:43;;;;;;;7.03;6.33;;;14.80;38.00;;;;;;5074631;28;20452;-71
2023/12/03 11:40:12;;;;;;;9.37;6.43;;;14.50;38.30;;;;;;5074791;28;20417;-72
2023/12/03 11:42:48;;;;;;;10.90;7.90;;;14.60;38.80;;;;;;5074955;28;20439;-72
2023/12/03 11:45:23;;;;;;;11.30;8.40;;;14.70;38.70;;;;;;5074677;28;20504;-72
2023/12/03 11:48:07;;;;;;;10.83;7.50;;;15.70;39.30;;;;;;5074622;28;20760;-72
2023/12/03 11:50:36;;;;;;;9.07;7.73;;;16.10;37.30;;;;;;5074573;28;20516;-72
2023/12/03 11:53:03;;;;;;;11.33;7.97;;;16.90;37.00;;;;;;5074469;28;20405;-72
2023/12/03 11:55:33;;;;;;;9.07;7.23;;;17.50;36.00;;;;;;5074519;28;20786;-72
2023/12/03 11:57:58;;;;;;;10.53;7.60;;;18.30;35.60;;;;;;5074243;28;20440;-72
2023/12/03 12:00:24;;;;;;;10.63;6.90;;;18.90;33.50;;;;;;5074488;28;20511;-71
2023/12/03 12:02:51;;;;;;;10.43;6.03;;;19.40;33.20;;;;;;5074813;28;20170;-71
2023/12/03 12:05:17;;;;;;;10.50;7.00;;;19.60;31.70;;;;;;5074433;28;20899;-72
2023/12/03 12:08:02;;;;;;;8.73;6.70;;;19.20;30.70;;;;;;5074070;28;20408;-72
2023/12/03 12:10:31;;;;;;;9.03;7.47;;;18.80;31.10;;;;;;5074242;28;20803;-72
2023/12/03 12:12:59;;;;;;;10.10;6.90;;;18.30;31.20;;;;;;5074120;28;20411;-72
2023/12/03 12:15:25;;;;;;;10.60;6.53;;;17.70;31.20;;;;;;5074068;28;20404;-72
2023/12/03 12:17:52;;;;;;;16.37;8.03;;;16.80;31.60;;;;;;5073867;28;20487;-72
2023/12/03 12:20:28;;;;;;;9.17;5.73;;;16.20;32.30;;;;;;5074014;28;20440;-72
2023/12/03 12:22:55;;;;;;;13.70;8.10;;;15.80;33.20;;;;;;5072675;28;20777;-71
2023/12/03 12:25:22;;;;;;;10.40;6.60;;;15.80;33.90;;;;;;5073741;28;20798;-72
2023/12/03 12:27:48;;;;;;;9.40;6.43;;;16.50;34.40;;;;;;5074023;28;20830;-72
2023/12/03 12:30:15;;;;;;;8.60;6.37;;;16.80;33.50;;;;;;5072537;28;20943;-72
2023/12/03 12:32:41;;;;;;;9.03;6.90;;;16.70;32.60;;;;;;5072576;28;20413;-72
2023/12/03 12:35:09;;;;;;;12.30;8.57;;;16.50;32.90;;;;;;5072882;28;20439;-72
2023/12/03 12:37:35;;;;;;;9.10;6.80;;;16.60;33.30;;;;;;5073538;28;20196;-72
2023/12/03 12:40:08;;;;;;;9.30;6.87;;;16.70;33.20;;;;;;5073737;28;20858;-71
2023/12/03 12:42:34;;;;;;;9.70;7.60;;;17.30;33.70;;;;;;5072256;28;20412;-72